Latest Coastal Weather Observations for Neptune Island

IDS60701

Issued at 1:21 am CST Tuesday 26 July 2016 (issued every 10 minutes, with the page automatically refreshed every 10 minutes)

About coastal observations | Map of coastal stations | Coastal observations for SA | Marine services | Other Formats
Station Details ID: 018115 Name: NEPTUNE ISLAND Lat: -35.34 Lon: 136.12 Height: 32.0 m
Data from the previous 72 hours. | See also: Recent months at Neptune Island
Date/Time
CST
Temp
°C
Wind Pressure Rain since
9am
mm
Weather Cloud Vis
km
Sea
Height
m
Swell
Dir  Spd
kts
Gust
kts
hPa Trend Height
m
Period
s
Dir
26/01:00am 10.5 WSW 24 30 1016.0 - 2.2 - - - - - - -
26/12:47am 10.7 WSW 21 33 1015.9 - 2.2 - - - - - - -
26/12:30am 10.8 WSW 19 25 1016.0 - 2.2 - - - - - - -
26/12:00am 10.9 WSW 22 26 1016.3 - 2.0 - - - - - - -
 
Date/Time
CST
Temp
°C
Wind Pressure Rain since
9am
mm
Weather Cloud Vis
km
Sea
Height
m
Swell
Dir  Spd
kts
Gust
kts
hPa Trend Height
m
Period
s
Dir
25/11:30pm 11.0 WSW 26 31 1016.2 - 2.0 - - - - - - -
25/11:00pm 10.8 SW 23 28 1016.2 - 2.0 - - - - - - -
25/10:30pm 9.9 WSW 25 31 1016.5 - 1.6 - - - - - - -
25/10:00pm 11.5 W 24 29 1016.1 - 1.4 - - - - - - -
25/09:30pm 11.8 W 23 30 1016.0 - 1.4 - - - - - - -
25/09:00pm 11.8 WSW 25 32 1015.9 - 1.4 - - - - - - -
25/08:30pm 11.8 WSW 28 32 1015.6 - 1.4 - - - - - - -
25/08:04pm 11.4 WSW 23 33 1015.7 - 1.4 - - - - - - -
25/08:00pm 11.0 WSW 26 34 1015.7 - 1.4 - - - - - - -
25/07:30pm 11.9 WSW 31 37 1015.1 - 1.4 - - - - - - -
25/07:00pm 11.9 WSW 31 37 1014.7 - 1.2 - - - - - - -
25/06:30pm 11.9 WSW 31 37 1014.1 - 1.2 - - - - - - -
25/06:00pm 11.7 WSW 32 39 1013.7 - 1.2 - - - - - - -
25/05:30pm 12.0 WSW 33 39 1013.3 - 1.2 - - - - - - -
25/05:00pm 12.3 WSW 35 40 1012.8 - 1.2 - - - - - - -
25/04:30pm 12.5 WSW 34 41 1012.3 - 1.2 - - - - - - -
25/04:00pm 12.6 WSW 36 44 1012.0 - 1.2 - - - - - - -
25/03:46pm 12.6 WSW 35 45 1011.7 - 1.2 - - - - - - -
25/03:30pm 12.5 WSW 34 41 1011.7 - 1.2 - - - - - - -
25/03:23pm 12.1 WSW 36 46 1011.6 - 1.2 - - - - - - -
25/03:00pm 12.0 WSW 36 44 1011.3 - 1.2 - - - - - - -
25/02:30pm 11.7 WSW 35 47 1011.4 - 1.2 - - - - - - -
25/02:26pm 12.2 WSW 35 47 1011.0 - 1.2 - - - - - - -
25/02:00pm 12.2 SW 35 41 1010.8 - 1.2 - - - - - - -
25/01:30pm 11.8 WSW 40 50 1010.4 - 1.2 - - - - - - -
25/01:00pm 13.4 W 42 52 1009.5 - 1.0 - - - - - - -
25/12:30pm 12.7 W 40 56 1010.2 - 1.0 - - - - - - -
25/12:07pm 14.1 W 40 50 1010.2 - 0.4 - - - - - - -
25/12:00pm 13.8 W 41 50 1010.0 - 0.4 Recent precip. - - - - - -
25/11:41am 13.8 WNW 38 50 1010.6 - 0.0 - - - - - - -
25/11:30am 14.8 WNW 40 47 1010.4 - 0.0 - - - - - - -
25/11:06am 14.6 WNW 35 46 1010.8 - 0.0 - - - - - - -
25/11:00am 14.5 WNW 36 44 1010.9 - 0.0 - - - - - - -
25/10:30am 14.1 WNW 35 46 1010.9 - 0.0 - - - - - - -
25/10:12am 14.2 WNW 34 45 1010.7 - 0.0 - - - - - - -
25/10:00am 14.5 WNW 33 42 1011.1 - 0.0 - - - - - - -
25/09:56am 14.3 WNW 32 42 1010.9 - 0.0 - - - - - - -
25/09:30am 14.1 WNW 31 38 1011.4 - 0.0 - - - - - - -
25/09:10am 13.7 WNW 33 46 1011.4 - 0.0 - - - - - - -
25/09:00am 13.8 WNW 35 42 1011.5 - 4.2 Recent precip. - - - - - -
25/08:30am 12.8 WNW 35 47 1011.7 - 4.2 - - - - - - -
25/08:03am 13.2 WNW 30 40 1011.9 - 3.8 - - - - - - -
25/08:00am 13.1 WNW 29 38 1012.0 - 3.8 - - - - - - -
25/07:31am 13.1 WNW 29 39 1012.1 - 3.8 - - - - - - -
25/07:30am 13.3 WNW 28 34 1012.2 - 3.8 - - - - - - -
25/07:00am 13.4 WNW 28 34 1012.2 - 3.8 - - - - - - -
25/06:36am 13.1 WNW 27 37 1012.3 - 3.8 - - - - - - -
25/06:30am 13.3 WNW 27 34 1012.2 - 3.8 - - - - - - -
25/06:00am 13.2 WNW 29 39 1012.6 - 3.8 - - - - - - -
25/05:30am 12.9 W 26 38 1012.5 - 3.8 - - - - - - -
25/05:08am 12.9 W 30 40 1012.5 - 3.8 - - - - - - -
25/05:00am 12.9 W 29 37 1012.7 - 3.8 - - - - - - -
25/04:30am 12.9 W 30 37 1012.9 - 3.8 - - - - - - -
25/04:00am 12.9 W 30 37 1013.0 - 3.8 - - - - - - -
25/03:30am 12.2 W 30 38 1013.3 - 3.8 - - - - - - -
25/03:19am 12.6 W 29 43 1013.2 - 3.8 - - - - - - -
25/03:00am 12.8 W 31 37 1013.3 - 3.8 - - - - - - -
25/02:30am 12.8 W 26 33 1013.5 - 3.8 - - - - - - -
25/02:07am 12.2 W 29 39 1013.8 - 3.8 - - - - - - -
25/02:00am 12.5 W 31 39 1013.5 - 3.8 - - - - - - -
25/01:30am 12.4 W 30 37 1013.7 - 3.8 - - - - - - -
25/01:15am 11.9 W 27 37 1013.9 - 3.8 - - - - - - -
25/01:00am 12.4 W 28 34 1013.8 - 3.8 - - - - - - -
25/12:30am 12.2 WSW 29 34 1013.9 - 3.8 - - - - - - -
25/12:00am 12.1 W 25 29 1014.1 - 3.8 Recent precip. - - - - - -
 
Date/Time
CST
Temp
°C
Wind Pressure Rain since
9am
mm
Weather Cloud Vis
km
Sea
Height
m
Swell
Dir  Spd
kts
Gust
kts
hPa Trend Height
m
Period
s
Dir
24/11:32pm 10.7 WSW 27 37 1014.3 - 3.8 - - - - - - -
24/11:30pm 10.4 WSW 28 37 1014.4 - 3.8 - - - - - - -
24/11:15pm 11.8 WSW 29 39 1013.8 - 3.0 - - - - - - -
24/11:00pm 11.9 WSW 25 30 1014.0 - 3.0 - - - - - - -
24/10:53pm 11.2 WSW 30 40 1014.1 - 3.0 - - - - - - -
24/10:30pm 12.6 WSW 30 36 1013.4 - 3.0 - - - - - - -
24/10:00pm 12.4 WSW 34 42 1013.0 - 3.0 - - - - - - -
24/09:30pm 12.3 WSW 31 41 1012.7 - 3.0 - - - - - - -
24/09:00pm 11.2 WSW 33 41 1012.6 - 3.0 Recent precip. - - - - - -
24/08:30pm 11.0 WSW 33 47 1012.4 - 3.0 - - - - - - -
24/08:03pm 12.3 WSW 37 47 1011.4 - 2.8 - - - - - - -
24/08:00pm 12.3 WSW 38 47 1011.3 - 2.8 - - - - - - -
24/07:39pm 12.1 WSW 35 45 1011.3 - 2.8 - - - - - - -
24/07:30pm 12.4 WSW 38 45 1010.8 - 2.8 - - - - - - -
24/07:16pm 12.1 WSW 35 45 1010.6 - 2.8 - - - - - - -
24/07:00pm 12.1 WSW 38 45 1010.2 - 2.8 - - - - - - -
24/06:34pm 11.9 WSW 40 50 1010.0 - 2.8 - - - - - - -
24/06:30pm 12.0 WSW 41 50 1009.5 - 2.8 - - - - - - -
24/06:00pm 12.3 WSW 40 47 1008.9 - 2.8 Recent precip. - - - - - -
24/05:32pm 12.0 WSW 41 51 1008.6 - 2.8 - - - - - - -
24/05:30pm 12.0 WSW 42 51 1008.4 - 2.8 - - - - - - -
24/05:08pm 11.7 WSW 43 54 1007.6 - 2.8 - - - - - - -
24/05:00pm 11.1 WSW 42 50 1007.6 - 2.6 - - - - - - -
24/04:32pm 12.3 W 43 53 1007.1 - 2.4 - - - - - - -
24/04:30pm 12.4 W 43 52 1007.1 - 2.4 - - - - - - -
24/04:00pm 12.3 W 42 54 1006.7 - 2.4 - - - - - - -
24/03:30pm 12.4 W 44 55 1006.3 - 2.4 - - - - - - -
24/03:02pm 12.3 W 44 54 1005.5 - 2.2 - - - - - - -
24/03:00pm 12.4 W 43 52 1005.6 - 2.2 Recent precip. - - - - - -
24/02:30pm 10.9 W 43 53 1005.5 - 2.2 - - - - - - -
24/02:00pm 11.6 W 44 56 1005.6 - 2.0 - - - - - - -
24/01:30pm 11.7 W 40 50 1005.2 - 1.6 - - - - - - -
24/01:26pm 11.0 W 41 52 1005.7 - 1.6 - - - - - - -
24/01:21pm 9.5 W 41 52 1005.4 - 1.4 - - - - - - -
24/01:00pm 10.9 W 35 51 1006.1 - 1.0 - - - - - - -
24/12:30pm 12.0 W 39 53 1005.7 - 0.4 - - - - - - -
24/12:04pm 11.9 W 36 47 1005.9 - 0.4 - - - - - - -
24/12:00pm 12.5 W 35 43 1006.1 - 0.4 - - - - - - -
24/11:30am 11.7 W 36 44 1006.3 - 0.4 - - - - - - -
24/11:00am 10.7 W 37 53 1006.4 - 0.4 - - - - - - -
24/10:50am 11.9 W 36 46 1006.1 - 0.0 - - - - - - -
24/10:30am 11.7 W 37 44 1005.8 - 0.0 - - - - - - -
24/10:00am 11.4 W 36 43 1005.8 - 0.0 - - - - - - -
24/09:30am 11.8 W 35 45 1005.3 - 0.0 - - - - - - -
24/09:00am 11.3 W 35 41 1005.1 - 16.0 - - - - - - -
24/08:40am 11.0 W 34 44 1004.7 - 16.0 - - - - - - -
24/08:30am 11.0 WSW 34 43 1004.6 - 16.0 - - - - - - -
24/08:11am 11.6 W 35 54 1003.9 - 16.0 - - - - - - -
24/08:00am 11.6 W 27 37 1004.2 - 16.0 - - - - - - -
24/07:34am 10.7 W 30 40 1004.4 - 16.0 - - - - - - -
24/07:30am 10.7 W 33 40 1004.3 - 16.0 - - - - - - -
24/07:00am 10.2 W 31 40 1004.0 - 16.0 - - - - - - -
24/06:40am 9.2 WSW 33 42 1004.4 - 15.4 - - - - - - -
24/06:30am 8.7 WSW 38 45 1004.2 - 14.8 - - - - - - -
24/06:18am 9.1 WSW 40 50 1003.8 - 14.0 - - - - - - -
24/06:00am 9.6 W 40 48 1003.6 - 13.2 Rain - - - - - -
24/05:55am 9.7 W 40 51 1003.3 - 12.2 - - - - - - -
24/05:49am 10.4 NW 35 51 1002.8 - 12.2 - - - - - - -
24/05:47am 12.7 NW 33 43 1003.3 - 12.2 - - - - - - -
24/05:30am 11.9 NW 33 43 1002.9 - 12.2 - - - - - - -
24/05:27am 12.0 NW 31 43 1002.9 - 12.2 - - - - - - -
24/05:08am 11.2 NNW 25 37 1003.9 - 11.6 - - - - - - -
24/05:02am 11.3 NW 27 37 1003.9 - 11.0 - - - - - - -
24/05:00am 12.1 NW 27 37 1003.7 - 11.0 - - - - - - -
24/04:30am 12.0 NW 31 40 1004.3 - 11.0 - - - - - - -
24/04:27am 11.8 NW 33 42 1004.5 - 11.0 - - - - - - -
24/04:20am 11.7 WNW 32 42 1004.2 - 11.0 - - - - - - -
24/04:08am 11.7 NW 25 35 1004.6 - 11.0 - - - - - - -
24/04:00am 11.8 NW 21 27 1005.0 - 10.8 - - - - - - -
24/03:30am 11.1 NNW 23 28 1005.7 - 9.0 - - - - - - -
24/03:07am 10.6 NNW 19 31 1006.2 - 8.6 - - - - - - -
24/03:00am 9.9 N 20 24 1007.0 - 8.4 Rain - - - - - -
24/02:30am 9.8 N 26 33 1007.6 - 5.0 - - - - - - -
24/02:13am 10.2 N 27 37 1007.1 - 3.6 - - - - - - -
24/02:00am 10.1 NNW 25 31 1008.0 - 3.0 - - - - - - -
24/01:30am 11.3 N 25 33 1008.5 - 2.4 - - - - - - -
24/01:00am 11.5 N 23 28 1009.1 - 2.4 - - - - - - -
24/12:30am 11.2 N 21 25 1009.6 - 2.4 - - - - - - -
24/12:00am 10.9 N 19 23 1010.5 - 2.4 - - - - - - -
 
Date/Time
CST
Temp
°C
Wind Pressure Rain since
9am
mm
Weather Cloud Vis
km
Sea
Height
m
Swell
Dir  Spd
kts
Gust
kts
hPa Trend Height
m
Period
s
Dir
23/11:30pm 10.8 NNW 19 22 1011.3 - 2.4 - - - - - - -
23/11:00pm 11.2 NNW 20 25 1012.0 - 2.4 - - - - - - -
23/10:30pm 10.7 NNW 16 21 1012.2 - 2.4 - - - - - - -
23/10:00pm 10.3 NNW 22 27 1012.6 - 2.2 - - - - - - -
23/09:30pm 11.0 NNW 16 21 1012.9 - 2.0 - - - - - - -
23/09:00pm 10.8 WNW 12 15 1013.3 - 2.0 Recent precip. - - - - - -
23/08:42pm 11.1 WNW 17 29 1013.3 - 1.2 - - - - - - -
23/08:30pm 11.6 NW 16 21 1013.3 - 1.0 - - - - - - -
23/08:00pm 11.7 NW 14 18 1013.5 - 1.0 - - - - - - -
23/07:30pm 11.7 NW 15 18 1013.7 - 1.0 - - - - - - -
23/07:00pm 11.6 WNW 15 18 1013.6 - 1.0 - - - - - - -
23/06:30pm 11.7 WNW 17 20 1013.6 - 1.0 - - - - - - -
23/06:00pm 11.4 WNW 14 17 1013.6 - 1.0 Recent precip. - - - - - -
23/05:30pm 10.9 WNW 12 15 1013.7 - 1.0 - - - - - - -
23/05:00pm 10.9 WNW 13 21 1013.8 - 0.8 - - - - - - -
23/04:57pm 10.6 WNW 15 25 1013.9 - 0.8 - - - - - - -
23/04:50pm 10.7 WNW 17 25 1013.6 - 0.6 - - - - - - -
23/04:30pm 11.9 W 15 19 1013.8 - 0.4 - - - - - - -
23/04:00pm 12.5 W 17 21 1013.8 - 0.4 - - - - - - -
23/03:30pm 12.6 W 18 21 1013.8 - 0.4 - - - - - - -
23/03:00pm 12.6 W 17 21 1013.7 - 0.4 - - - - - - -
23/02:30pm 12.7 WSW 17 22 1013.6 - 0.4 - - - - - - -
23/02:00pm 12.4 WSW 17 22 1013.8 - 0.4 - - - - - - -
23/01:30pm 12.9 WSW 17 22 1014.0 - 0.4 - - - - - - -
23/01:00pm 12.5 WSW 18 21 1014.2 - 0.4 - - - - - - -
23/12:30pm 12.3 WSW 20 23 1014.5 - 0.4 - - - - - - -
23/12:00pm 11.5 SW 22 27 1014.8 - 0.4 - - - - - - -
23/11:42am 11.7 WSW 19 29 1014.8 - 0.4 - - - - - - -
23/11:30am 12.1 WSW 16 20 1015.1 - 0.4 - - - - - - -
23/11:00am 11.5 WSW 19 23 1015.0 - 0.4 - - - - - - -
23/10:30am 11.4 SW 16 21 1014.9 - 0.4 - - - - - - -
23/10:00am 10.5 SW 10 23 1014.8 - 0.4 - - - - - - -
23/09:37am 10.2 SW 18 28 1014.6 - 0.2 - - - - - - -
23/09:30am 10.1 SW 18 28 1014.5 - 0.2 - - - - - - -
23/09:27am 10.8 SW 14 27 1014.2 - 0.0 - - - - - - -
23/09:00am 10.0 SW 11 14 1014.1 - 5.8 Recent precip. - - - - - -
23/08:30am 10.2 SW 17 25 1013.7 - 5.8 - - - - - - -
23/08:00am 9.8 SW 14 18 1013.4 - 5.6 - - - - - - -
23/07:34am 9.7 SW 16 30 1013.2 - 5.0 - - - - - - -
23/07:30am 9.7 SSW 16 22 1013.2 - 5.0 - - - - - - -
23/07:10am 10.6 SW 19 30 1012.7 - 4.8 - - - - - - -
23/07:00am 10.5 SW 20 25 1012.6 - 4.6 - - - - - - -
23/06:30am 10.6 SSW 22 28 1012.1 - 4.6 - - - - - - -
23/06:00am 10.3 SW 21 27 1011.6 - 4.0 Recent precip. - - - - - -
23/05:38am 9.5 SW 28 36 1011.5 - 3.8 - - - - - - -
23/05:31am 10.1 SW 22 36 1011.1 - 2.8 - - - - - - -
23/05:30am 10.4 SW 20 36 1011.0 - 2.8 - - - - - - -
23/05:06am 11.3 SW 23 33 1010.8 - 2.6 - - - - - - -
23/05:00am 11.3 SW 22 27 1010.8 - 2.6 - - - - - - -
23/04:30am 11.3 SW 24 30 1010.3 - 2.6 - - - - - - -
23/04:00am 11.2 SSW 23 28 1009.9 - 2.4 - - - - - - -
23/03:30am 11.5 SW 21 26 1009.6 - 2.4 - - - - - - -
23/03:12am 11.0 SW 25 36 1009.3 - 2.4 - - - - - - -
23/03:00am 11.1 SW 26 34 1009.3 - 2.4 - - - - - - -
23/02:30am 11.4 SW 25 30 1009.0 - 2.4 - - - - - - -
23/02:00am 11.7 SW 23 29 1008.7 - 2.4 - - - - - - -
23/01:35am 11.7 WSW 19 26 1008.2 - 2.4 - - - - - - -
23/01:30am 11.0 WSW 21 25 1008.3 - 2.4 - - - - - - -

Other Formats:

Comma delimited format used in spreadsheet applications
http://www.bom.gov.au/fwo/IDS60701/IDS60701.94804.axf

JavaScript Object Notation format (JSON) in row-major order
http://www.bom.gov.au/fwo/IDS60701/IDS60701.94804.json